Time;durP1;ratioP1;P1;durP2;ratioP2;P2;SDS_P1;SDS_P2;PMS_P1;PMS_P2;Temp;Humidity;BMP_temperature;BMP_pressure;BME280_temperature;BME280_humidity;BME280_pressure;Samples;Min_cycle;Max_cycle;Signal;HPM_P1;HPM_P2
2022/06/07 00:02:01;;;;;;;1.60;1.50;;;13.10;1.00;;;;;;5073414;28;20416;-66
2022/06/07 00:04:27;;;;;;;1.30;1.20;;;13.10;1.00;;;;;;5073525;28;20423;-75
2022/06/07 00:06:53;;;;;;;1.60;1.50;;;13.10;1.00;;;;;;5071006;28;20427;-66
2022/06/07 00:09:18;;;;;;;1.90;1.70;;;13.10;1.00;;;;;;5070922;28;20243;-66
2022/06/07 00:11:44;;;;;;;1.47;1.37;;;13.10;1.00;;;;;;5073235;28;20669;-74
2022/06/07 00:14:10;;;;;;;1.93;1.73;;;13.10;1.00;;;;;;5073614;28;20531;-66
2022/06/07 00:16:36;;;;;;;2.20;1.73;;;13.00;1.00;;;;;;5071282;28;20635;-74
2022/06/07 00:19:02;;;;;;;1.63;1.53;;;13.10;1.00;;;;;;5072975;28;20478;-64
2022/06/07 00:21:29;;;;;;;1.50;1.30;;;13.10;1.00;;;;;;5072902;28;20201;-74
2022/06/07 00:23:59;;;;;;;1.60;1.50;;;13.10;1.00;;;;;;5072639;28;20387;-75
2022/06/07 00:26:25;;;;;;;2.13;1.80;;;13.10;1.00;;;;;;5071416;28;20556;-75
2022/06/07 00:28:50;;;;;;;1.10;1.00;;;13.10;1.00;;;;;;5072716;28;20945;-75
2022/06/07 00:31:16;;;;;;;2.00;1.57;;;13.00;1.00;;;;;;5073090;28;20225;-66
2022/06/07 00:33:42;;;;;;;2.90;1.77;;;13.00;1.00;;;;;;5073148;28;20527;-66
2022/06/07 00:36:08;;;;;;;1.40;1.30;;;13.00;1.00;;;;;;5072989;28;20257;-66
2022/06/07 00:38:35;;;;;;;1.40;1.30;;;13.00;1.00;;;;;;5072306;28;20650;-66
2022/06/07 00:41:03;;;;;;;1.40;1.30;;;12.90;1.00;;;;;;5071292;28;20455;-75
2022/06/07 00:43:30;;;;;;;1.87;1.77;;;12.90;1.00;;;;;;5072433;28;20388;-74
2022/06/07 00:45:57;;;;;;;1.60;1.07;;;12.90;1.00;;;;;;5072819;28;20460;-66
2022/06/07 00:48:23;;;;;;;2.80;1.80;;;12.90;1.00;;;;;;5070983;28;20425;-66
2022/06/07 00:50:58;;;;;;;1.73;1.57;;;12.80;1.00;;;;;;5071466;28;20430;-66
2022/06/07 00:53:33;;;;;;;1.43;1.33;;;12.80;1.00;;;;;;5073155;28;20445;-66
2022/06/07 00:55:59;;;;;;;1.60;1.50;;;12.80;1.00;;;;;;5072892;28;20413;-67
2022/06/07 00:58:27;;;;;;;1.40;1.30;;;12.80;1.00;;;;;;5070426;28;20839;-75
2022/06/07 01:00:54;;;;;;;1.50;1.40;;;12.70;1.00;;;;;;5072591;28;20447;-66
2022/06/07 01:03:21;;;;;;;1.50;1.40;;;12.70;1.00;;;;;;5073111;28;20378;-75
2022/06/07 01:05:50;;;;;;;1.90;1.80;;;12.70;1.00;;;;;;5072731;28;20500;-66
2022/06/07 01:11:01;;;;;;;1.83;1.73;;;12.50;1.00;;;;;;5072608;28;20453;-75
2022/06/07 01:13:32;;;;;;;1.50;1.40;;;12.50;1.00;;;;;;5072093;28;20379;-75
2022/06/07 01:16:02;;;;;;;1.97;1.57;;;12.50;1.00;;;;;;5072294;28;20419;-67
2022/06/07 01:18:31;;;;;;;1.53;1.43;;;12.60;1.00;;;;;;5071634;28;20422;-75
2022/06/07 01:21:18;;;;;;;1.50;1.40;;;12.60;1.00;;;;;;5072765;28;20420;-75
2022/06/07 01:23:45;;;;;;;1.50;1.40;;;12.60;1.00;;;;;;5071458;28;20434;-75
2022/06/07 01:26:11;;;;;;;1.57;1.47;;;12.60;1.00;;;;;;5069741;28;20849;-69
2022/06/07 01:28:37;;;;;;;2.07;1.87;;;12.50;1.00;;;;;;5071905;28;20860;-66
2022/06/07 01:31:04;;;;;;;2.50;1.40;;;12.50;1.00;;;;;;5072494;28;20395;-66
2022/06/07 01:33:30;;;;;;;1.30;1.20;;;12.50;1.00;;;;;;5071745;28;20444;-75
2022/06/07 01:36:01;;;;;;;3.27;1.90;;;12.50;1.00;;;;;;5075595;28;20421;-75
2022/06/07 01:38:30;;;;;;;1.80;1.70;;;12.50;1.00;;;;;;5074058;28;20509;-67
2022/06/07 01:43:40;;;;;;;1.87;1.57;;;12.40;1.00;;;;;;5076139;28;20782;-75
2022/06/07 01:46:05;;;;;;;1.60;1.50;;;12.50;1.00;;;;;;5075911;28;20448;-75
2022/06/07 01:48:32;;;;;;;1.50;1.40;;;12.50;1.00;;;;;;5074984;28;20549;-66
2022/06/07 01:51:03;;;;;;;1.63;1.53;;;12.40;1.00;;;;;;5073486;28;20248;-76
2022/06/07 01:53:29;;;;;;;2.30;2.00;;;12.40;1.00;;;;;;5075733;28;20458;-76
2022/06/07 01:56:12;;;;;;;2.03;1.93;;;12.30;1.00;;;;;;5075735;28;20524;-75
2022/06/07 01:58:41;;;;;;;2.00;1.80;;;12.40;1.00;;;;;;5075059;28;20190;-75
2022/06/07 02:01:08;;;;;;;1.93;1.83;;;12.30;1.00;;;;;;5075630;28;20395;-75
2022/06/07 02:03:34;;;;;;;2.13;1.83;;;12.40;1.00;;;;;;5073330;28;20425;-66
2022/06/07 02:06:04;;;;;;;1.83;1.73;;;12.40;1.00;;;;;;5074271;28;20931;-66
2022/06/07 02:08:31;;;;;;;1.70;1.60;;;12.40;1.00;;;;;;5073670;28;20411;-69
2022/06/07 02:11:05;;;;;;;1.90;1.80;;;12.40;1.00;;;;;;5075067;28;20420;-75
2022/06/07 02:13:31;;;;;;;1.80;1.70;;;12.40;1.00;;;;;;5075685;28;20867;-76
2022/06/07 02:15:57;;;;;;;2.00;1.90;;;12.50;1.00;;;;;;5075537;28;20440;-75
2022/06/07 02:18:23;;;;;;;2.27;2.07;;;12.50;1.00;;;;;;5074575;28;20232;-67
2022/06/07 02:20:49;;;;;;;2.20;2.00;;;12.50;1.00;;;;;;5072905;28;20182;-66
2022/06/07 02:23:14;;;;;;;2.50;2.30;;;12.50;1.00;;;;;;5075752;28;20406;-65
2022/06/07 02:25:47;;;;;;;2.20;2.10;;;12.50;1.00;;;;;;5075265;28;20458;-73
2022/06/07 02:28:15;;;;;;;2.07;1.97;;;12.50;1.00;;;;;;5074004;28;20186;-69
2022/06/07 02:30:43;;;;;;;2.27;2.17;;;12.60;1.00;;;;;;5074091;28;20440;-72
2022/06/07 02:33:09;;;;;;;2.73;2.57;;;12.60;1.00;;;;;;5075402;28;20371;-73
2022/06/07 02:35:38;;;;;;;2.40;2.20;;;12.50;1.00;;;;;;5075173;28;20437;-65
2022/06/07 02:38:04;;;;;;;2.50;2.40;;;12.50;1.00;;;;;;5071707;28;20957;-64
2022/06/07 02:40:30;;;;;;;2.30;2.10;;;12.60;1.00;;;;;;5074854;28;20405;-74
2022/06/07 02:42:56;;;;;;;4.07;3.77;;;12.60;1.00;;;;;;5075018;28;20772;-65
2022/06/07 02:45:21;;;;;;;2.57;2.47;;;12.60;1.00;;;;;;5074683;28;20431;-67
2022/06/07 02:47:47;;;;;;;3.03;2.83;;;12.60;1.80;;;;;;5073785;28;20178;-73
2022/06/07 02:50:13;;;;;;;3.23;3.03;;;12.70;12.60;;;;;;5074817;28;20162;-66
2022/06/07 02:52:38;;;;;;;3.07;2.87;;;12.70;15.80;;;;;;5074985;28;20699;-75
2022/06/07 02:55:05;;;;;;;3.50;3.20;;;12.70;23.50;;;;;;5073284;28;20179;-73
2022/06/07 02:57:30;;;;;;;3.00;2.80;;;12.70;34.70;;;;;;5073908;28;20170;-65
2022/06/07 02:59:56;;;;;;;3.50;3.20;;;12.70;34.80;;;;;;5074244;28;20415;-73
2022/06/07 03:02:22;;;;;;;3.23;3.03;;;12.70;43.50;;;;;;5074336;28;20432;-65
2022/06/07 03:04:47;;;;;;;3.57;3.30;;;12.70;59.70;;;;;;5074423;28;20206;-74
2022/06/07 03:07:13;;;;;;;3.60;3.30;;;12.70;70.30;;;;;;5072363;28;20206;-67
2022/06/07 03:09:40;;;;;;;3.30;3.00;;;12.70;80.20;;;;;;5074593;28;20210;-76
2022/06/07 03:12:06;;;;;;;3.83;3.53;;;12.80;82.60;;;;;;5072896;28;20174;-76
2022/06/07 03:14:31;;;;;;;3.57;3.27;;;12.80;92.20;;;;;;5074537;28;20410;-66
2022/06/07 03:16:57;;;;;;;3.53;3.23;;;12.80;91.30;;;;;;5073104;28;20422;-67
2022/06/07 03:19:23;;;;;;;3.33;3.03;;;12.80;93.20;;;;;;5073806;28;20228;-67
2022/06/07 03:21:48;;;;;;;3.40;3.20;;;12.80;93.10;;;;;;5073976;28;20178;-67
2022/06/07 03:24:14;;;;;;;4.30;3.90;;;12.80;93.50;;;;;;5074327;28;20170;-76
2022/06/07 03:26:40;;;;;;;4.13;3.73;;;12.80;93.70;;;;;;5070637;28;20198;-67
2022/06/07 03:29:05;;;;;;;4.10;3.80;;;12.80;92.80;;;;;;5073966;28;20327;-66
2022/06/07 03:31:31;;;;;;;3.47;3.17;;;12.80;92.90;;;;;;5073888;28;20698;-75
2022/06/07 03:33:57;;;;;;;4.90;4.50;;;12.80;92.10;;;;;;5074069;28;20505;-75
2022/06/07 03:36:28;;;;;;;3.87;3.57;;;12.70;94.00;;;;;;5073441;28;20378;-67
2022/06/07 03:38:56;;;;;;;4.40;4.10;;;12.80;95.80;;;;;;5073359;28;20399;-69
2022/06/07 03:41:26;;;;;;;4.20;3.80;;;12.80;97.60;;;;;;5073587;28;20399;-76
2022/06/07 03:43:51;;;;;;;4.20;3.90;;;12.80;98.20;;;;;;5072178;28;20433;-64
2022/06/07 03:46:23;;;;;;;4.27;3.97;;;12.80;98.90;;;;;;5072113;28;20480;-71
2022/06/07 03:48:50;;;;;;;4.33;4.00;;;12.90;98.70;;;;;;5073239;28;20181;-74
2022/06/07 03:51:21;;;;;;;4.60;4.20;;;12.80;98.00;;;;;;5073881;28;20388;-64
2022/06/07 03:53:48;;;;;;;5.80;4.60;;;12.90;99.60;;;;;;5073503;28;20417;-75
2022/06/07 03:56:14;;;;;;;7.30;4.40;;;12.90;99.10;;;;;;5071798;28;20419;-73
2022/06/07 03:58:40;;;;;;;4.03;3.73;;;12.90;99.90;;;;;;5072437;28;20418;-73
2022/06/07 04:01:08;;;;;;;4.30;4.00;;;12.90;98.40;;;;;;5071353;28;20410;-65
2022/06/07 04:03:34;;;;;;;3.87;3.57;;;12.90;97.40;;;;;;5073399;28;20895;-73
2022/06/07 04:06:01;;;;;;;3.43;3.13;;;12.90;97.30;;;;;;5073532;28;20418;-65
2022/06/07 04:08:27;;;;;;;3.70;3.40;;;12.90;99.30;;;;;;5071301;28;20511;-73
2022/06/07 04:10:56;;;;;;;4.10;3.73;;;12.90;99.90;;;;;;5073697;28;20370;-73
2022/06/07 04:13:24;;;;;;;4.00;3.70;;;12.90;99.90;;;;;;5073016;28;20174;-73
2022/06/07 04:15:50;;;;;;;3.47;3.27;;;13.00;99.90;;;;;;5071985;28;20419;-65
2022/06/07 04:18:16;;;;;;;3.63;3.07;;;13.00;99.90;;;;;;5070796;28;20407;-73
2022/06/07 04:20:42;;;;;;;4.07;3.77;;;13.00;99.90;;;;;;5073318;28;20379;-65
2022/06/07 04:23:13;;;;;;;3.40;3.10;;;13.00;99.90;;;;;;5073287;28;20876;-74
2022/06/07 04:25:40;;;;;;;3.57;3.27;;;13.00;99.90;;;;;;5073175;28;20479;-74
2022/06/07 04:28:06;;;;;;;3.37;3.17;;;13.00;99.90;;;;;;5072036;28;20432;-74
2022/06/07 04:30:33;;;;;;;3.40;3.10;;;13.00;99.90;;;;;;5073189;28;20425;-65
2022/06/07 04:32:59;;;;;;;2.90;2.80;;;13.10;99.90;;;;;;5070905;28;20444;-74
2022/06/07 04:35:25;;;;;;;3.57;3.20;;;13.10;99.90;;;;;;5072005;28;20483;-73
2022/06/07 04:37:53;;;;;;;2.50;2.30;;;13.10;99.90;;;;;;5071796;28;20928;-73
2022/06/07 04:40:19;;;;;;;3.93;3.60;;;13.20;99.90;;;;;;5071754;28;20383;-65
2022/06/07 04:42:45;;;;;;;2.90;2.60;;;13.10;99.90;;;;;;5072813;28;20427;-73
2022/06/07 04:45:14;;;;;;;3.90;3.10;;;13.10;99.90;;;;;;5073022;28;20850;-65
2022/06/07 04:47:41;;;;;;;3.33;3.13;;;13.20;99.90;;;;;;5071680;28;20638;-73
2022/06/07 04:50:09;;;;;;;3.07;2.87;;;13.20;99.90;;;;;;5071200;28;20481;-66
2022/06/07 04:52:34;;;;;;;3.40;3.20;;;13.20;99.60;;;;;;5072805;28;20495;-65
2022/06/07 04:55:00;;;;;;;3.60;3.30;;;13.20;99.70;;;;;;5073311;28;20462;-66
2022/06/07 04:57:27;;;;;;;3.60;3.30;;;13.20;98.40;;;;;;5071811;28;20232;-65
2022/06/07 04:59:53;;;;;;;5.30;3.07;;;13.30;99.00;;;;;;5072859;28;20198;-75
2022/06/07 05:02:19;;;;;;;3.00;2.80;;;13.30;97.20;;;;;;5071655;28;20448;-72
2022/06/07 05:04:45;;;;;;;3.73;3.43;;;13.30;98.00;;;;;;5072831;28;20186;-74
2022/06/07 05:07:11;;;;;;;3.70;3.40;;;13.30;99.30;;;;;;5069978;28;20434;-67
2022/06/07 05:09:37;;;;;;;3.77;3.47;;;13.40;97.50;;;;;;5074912;28;20957;-74
2022/06/07 05:12:03;;;;;;;3.53;3.33;;;13.40;94.50;;;;;;5076396;28;20431;-67
2022/06/07 05:14:29;;;;;;;3.17;2.97;;;13.40;91.10;;;;;;5075767;28;20198;-67
2022/06/07 05:16:55;;;;;;;4.27;3.27;;;13.40;86.80;;;;;;5075485;28;20386;-65
2022/06/07 05:19:20;;;;;;;3.93;3.03;;;13.50;86.40;;;;;;5076466;28;20231;-67
2022/06/07 05:21:47;;;;;;;3.30;3.10;;;13.50;83.20;;;;;;5075194;28;20182;-71
2022/06/07 05:24:13;;;;;;;7.53;2.87;;;13.60;83.30;;;;;;5074208;28;20209;-65
2022/06/07 05:26:46;;;;;;;3.40;3.20;;;13.50;83.20;;;;;;5075833;28;20364;-73
2022/06/07 05:29:24;;;;;;;3.30;3.10;;;13.60;83.30;;;;;;5076114;28;20431;-73
2022/06/07 05:31:50;;;;;;;4.83;2.77;;;13.60;83.30;;;;;;5076359;28;20392;-65
2022/06/07 05:34:16;;;;;;;3.03;2.83;;;13.70;74.60;;;;;;5074739;28;20402;-71
2022/06/07 05:36:41;;;;;;;3.00;2.80;;;13.70;69.30;;;;;;5075403;28;20245;-66
2022/06/07 05:39:16;;;;;;;3.40;2.87;;;13.70;67.50;;;;;;5074590;28;20426;-71
2022/06/07 05:41:41;;;;;;;2.80;2.63;;;13.70;61.10;;;;;;5075962;28;20177;-71
2022/06/07 05:44:08;;;;;;;2.90;2.70;;;13.70;54.00;;;;;;5075528;28;20374;-72
2022/06/07 05:46:35;;;;;;;3.10;2.90;;;13.80;53.50;;;;;;5073636;28;20512;-65
2022/06/07 05:49:00;;;;;;;4.50;2.90;;;13.80;47.70;;;;;;5075993;28;20420;-73
2022/06/07 05:51:26;;;;;;;3.10;2.90;;;13.80;36.00;;;;;;5075855;28;20393;-75
2022/06/07 05:53:53;;;;;;;7.63;3.17;;;13.80;35.90;;;;;;5076215;28;20200;-72
2022/06/07 05:56:19;;;;;;;3.10;2.90;;;13.70;29.00;;;;;;5074045;28;20220;-73
2022/06/07 05:58:44;;;;;;;2.87;2.67;;;13.70;27.10;;;;;;5074774;28;20781;-73
2022/06/07 06:01:10;;;;;;;2.97;2.77;;;13.70;34.40;;;;;;5075477;28;20244;-74
2022/06/07 06:03:36;;;;;;;3.63;3.33;;;13.80;34.70;;;;;;5076024;28;20190;-74
2022/06/07 06:06:02;;;;;;;3.10;2.90;;;13.70;19.30;;;;;;5075655;28;20194;-67
2022/06/07 06:11:15;;;;;;;3.63;3.33;;;13.70;11.70;;;;;;5075515;28;20394;-66
2022/06/07 06:13:41;;;;;;;5.50;4.00;;;13.70;11.10;;;;;;5073206;28;20438;-74
2022/06/07 06:16:14;;;;;;;4.27;3.97;;;13.80;11.70;;;;;;5075122;28;20474;-74
2022/06/07 06:18:41;;;;;;;3.77;3.47;;;13.80;7.70;;;;;;5061231;28;20462;-74
2022/06/07 06:21:07;;;;;;;3.63;3.37;;;13.80;1.00;;;;;;5075077;28;20946;-74
2022/06/07 06:23:33;;;;;;;4.17;3.87;;;13.90;1.00;;;;;;5075010;28;20924;-67
2022/06/07 06:25:59;;;;;;;3.87;3.57;;;13.90;1.00;;;;;;5075186;28;20459;-74
2022/06/07 06:28:25;;;;;;;4.43;3.83;;;14.00;1.00;;;;;;5074443;28;20185;-67
2022/06/07 06:30:52;;;;;;;4.23;3.87;;;14.00;1.00;;;;;;5075039;28;20388;-69
2022/06/07 06:33:18;;;;;;;4.27;3.90;;;14.00;1.00;;;;;;5074275;28;20414;-74
2022/06/07 06:35:53;;;;;;;5.07;4.07;;;14.00;1.00;;;;;;5072543;28;20407;-73
2022/06/07 06:38:20;;;;;;;4.27;3.87;;;14.00;1.00;;;;;;5077358;28;20420;-67
2022/06/07 06:40:46;;;;;;;4.40;4.07;;;14.10;1.00;;;;;;5075071;28;20412;-68
2022/06/07 06:43:14;;;;;;;4.73;4.27;;;14.10;1.00;;;;;;5074819;28;20428;-74
2022/06/07 06:45:40;;;;;;;4.47;4.07;;;14.20;1.00;;;;;;5074961;28;20450;-73
2022/06/07 06:48:07;;;;;;;5.20;4.70;;;14.30;1.00;;;;;;5072385;28;20435;-73
2022/06/07 06:50:34;;;;;;;8.70;4.77;;;14.30;1.00;;;;;;5074513;28;20966;-69
2022/06/07 06:53:00;;;;;;;9.00;5.30;;;14.40;1.00;;;;;;5072603;28;20435;-68
2022/06/07 06:55:25;;;;;;;4.40;4.10;;;14.40;1.00;;;;;;5074119;28;20392;-66
2022/06/07 06:57:51;;;;;;;5.33;4.83;;;14.40;1.00;;;;;;5073887;28;20209;-75
2022/06/07 07:00:17;;;;;;;4.20;3.80;;;14.30;1.00;;;;;;5074914;28;20175;-72
2022/06/07 07:02:46;;;;;;;5.57;5.07;;;14.40;1.00;;;;;;5074701;28;20181;-72
2022/06/07 07:05:14;;;;;;;4.73;3.70;;;14.60;1.00;;;;;;5074662;28;20456;-72
2022/06/07 07:07:40;;;;;;;4.47;4.17;;;14.60;1.00;;;;;;5073800;28;20873;-73
2022/06/07 07:10:07;;;;;;;4.40;4.03;;;14.80;1.00;;;;;;5073287;28;20414;-73
2022/06/07 07:12:34;;;;;;;4.13;3.67;;;14.90;1.00;;;;;;5073327;28;20429;-66
2022/06/07 07:15:01;;;;;;;5.70;4.67;;;15.00;1.00;;;;;;5073899;28;20412;-73
2022/06/07 07:17:28;;;;;;;4.33;3.93;;;15.00;1.00;;;;;;5073645;28;20814;-73
2022/06/07 07:19:55;;;;;;;3.63;3.33;;;15.00;1.00;;;;;;5074196;28;20440;-66
2022/06/07 07:22:22;;;;;;;9.00;3.80;;;15.10;1.00;;;;;;5074526;28;20903;-65
2022/06/07 07:24:48;;;;;;;3.77;3.47;;;15.20;1.00;;;;;;5072021;28;20555;-74
2022/06/07 07:27:15;;;;;;;5.33;4.70;;;15.20;1.00;;;;;;5067462;28;20931;-73
2022/06/07 07:29:42;;;;;;;4.40;4.10;;;15.30;1.00;;;;;;5073919;28;20480;-67
2022/06/07 07:32:08;;;;;;;4.30;3.90;;;15.30;1.00;;;;;;5068747;28;20994;-75
2022/06/07 07:34:33;;;;;;;4.80;4.40;;;15.40;1.00;;;;;;5070215;28;20680;-67
2022/06/07 07:36:59;;;;;;;5.83;4.13;;;15.50;1.00;;;;;;5070891;28;20178;-73
2022/06/07 07:39:25;;;;;;;5.57;5.07;;;15.60;1.00;;;;;;5076992;28;20202;-76
2022/06/07 07:41:53;;;;;;;4.97;4.37;;;15.50;1.00;;;;;;5066066;28;20202;-65
2022/06/07 07:44:21;;;;;;;5.27;4.77;;;15.60;1.00;;;;;;5072483;28;20428;-73
2022/06/07 07:46:48;;;;;;;7.03;5.60;;;15.80;1.00;;;;;;5063315;28;21146;-65
2022/06/07 07:49:16;;;;;;;4.63;4.30;;;15.70;1.00;;;;;;5059705;28;20444;-73
2022/06/07 07:51:44;;;;;;;5.13;4.67;;;15.70;1.00;;;;;;5053347;28;20414;-68
2022/06/07 07:54:12;;;;;;;4.80;4.40;;;15.70;1.00;;;;;;5057468;28;20412;-73
2022/06/07 07:56:38;;;;;;;13.30;6.37;;;15.80;1.00;;;;;;5071044;28;20769;-75
2022/06/07 07:59:05;;;;;;;6.40;5.53;;;15.90;1.00;;;;;;5069375;28;20478;-66
2022/06/07 08:01:31;;;;;;;6.17;5.27;;;15.90;1.00;;;;;;5073726;28;20422;-66
2022/06/07 08:03:59;;;;;;;6.00;5.30;;;15.90;1.00;;;;;;5072331;28;20433;-75
2022/06/07 08:06:27;;;;;;;8.20;6.03;;;15.90;1.00;;;;;;5073238;28;20452;-74
2022/06/07 08:08:55;;;;;;;5.47;4.93;;;15.80;1.00;;;;;;5071204;28;20436;-69
2022/06/07 08:11:26;;;;;;;10.57;6.90;;;15.80;1.00;;;;;;5067329;28;20515;-67
2022/06/07 08:13:52;;;;;;;7.03;6.33;;;15.70;1.00;;;;;;5052339;28;20436;-71
2022/06/07 08:16:18;;;;;;;9.00;6.57;;;15.70;1.00;;;;;;5053284;28;20436;-67
2022/06/07 08:18:45;;;;;;;7.60;6.67;;;15.70;99.90;;;;;;5057953;28;20456;-74
2022/06/07 08:21:20;;;;;;;7.20;6.47;;;15.70;99.90;;;;;;5072190;28;20432;-73
2022/06/07 08:23:47;;;;;;;6.97;6.37;;;15.60;1.00;;;;;;5073157;28;20781;-66
2022/06/07 08:26:13;;;;;;;13.07;7.47;;;15.60;1.00;;;;;;5073222;28;20459;-67
2022/06/07 08:28:40;;;;;;;8.67;7.80;;;15.70;1.00;;;;;;5071504;28;21751;-73
2022/06/07 08:31:13;;;;;;;15.07;8.97;;;15.80;1.00;;;;;;5073372;28;20421;-74
2022/06/07 08:39:09;;;;;;;12.03;9.17;;;15.60;99.90;;;;;;5073179;28;20576;-67
2022/06/07 08:41:54;;;;;;;14.07;10.57;;;15.60;99.90;;;;;;5073077;28;20403;-75
2022/06/07 08:44:51;;;;;;;12.90;10.70;;;15.50;1.00;;;;;;5075746;28;20419;-66
2022/06/07 08:47:39;;;;;;;14.13;10.83;;;15.50;1.00;;;;;;5073117;28;20395;-66
2022/06/07 08:50:22;;;;;;;17.30;12.50;;;15.40;1.00;;;;;;5077027;28;20416;-75
2022/06/07 08:52:51;;;;;;;16.17;12.80;;;15.30;1.00;;;;;;5074812;28;20828;-74
2022/06/07 08:55:20;;;;;;;14.93;12.33;;;15.30;1.00;;;;;;5076105;28;20807;-67
2022/06/07 08:57:57;;;;;;;15.30;12.67;;;15.30;1.00;;;;;;5075858;28;20408;-67
2022/06/07 09:00:27;;;;;;;15.17;11.20;;;15.20;1.00;;;;;;5076969;28;20396;-67
2022/06/07 09:03:31;;;;;;;16.33;12.23;;;15.10;1.00;;;;;;5075926;28;20916;-65
2022/06/07 09:06:00;;;;;;;12.77;10.90;;;15.10;1.00;;;;;;5076555;28;21001;-66
2022/06/07 09:08:44;;;;;;;18.67;13.80;;;15.00;1.00;;;;;;5074680;28;20421;-66
2022/06/07 09:14:09;;;;;;;14.80;10.90;;;15.00;1.00;;;;;;5077099;28;20511;-71
2022/06/07 09:16:41;;;;;;;16.83;12.10;;;15.00;1.00;;;;;;5074567;28;20928;-74
2022/06/07 09:19:20;;;;;;;15.10;11.40;;;15.20;1.00;;;;;;5076637;28;20475;-67
2022/06/07 09:21:46;;;;;;;12.97;10.73;;;15.40;1.00;;;;;;5076679;28;20453;-72
2022/06/07 09:24:20;;;;;;;14.93;11.10;;;15.80;1.00;;;;;;5076096;28;20989;-65
2022/06/07 09:26:46;;;;;;;12.23;11.03;;;16.10;1.00;;;;;;5075743;28;20416;-67
2022/06/07 09:29:23;;;;;;;13.77;10.77;;;16.20;1.00;;;;;;5076518;28;20419;-66
2022/06/07 09:31:50;;;;;;;12.27;10.97;;;16.10;1.00;;;;;;5076444;28;20174;-73
2022/06/07 09:34:26;;;;;;;11.13;9.53;;;16.00;1.00;;;;;;5075268;28;20424;-74
2022/06/07 09:36:59;;;;;;;13.30;9.53;;;15.80;1.00;;;;;;5073770;28;20428;-66
2022/06/07 09:39:29;;;;;;;12.30;9.33;;;15.80;1.00;;;;;;5076222;28;20511;-66
2022/06/07 09:42:19;;;;;;;11.33;10.03;;;15.60;99.90;;;;;;5076189;28;20479;-67
2022/06/07 09:44:54;;;;;;;14.20;10.37;;;15.50;1.00;;;;;;5076022;28;20450;-66
2022/06/07 09:47:25;;;;;;;12.03;10.70;;;15.50;1.00;;;;;;5075228;28;20470;-74
2022/06/07 09:50:05;;;;;;;15.00;11.37;;;15.40;99.90;;;;;;5072182;28;20445;-66
2022/06/07 09:52:59;;;;;;;11.70;10.60;;;15.40;1.00;;;;;;5074926;28;20430;-74
2022/06/07 09:55:45;;;;;;;13.10;11.70;;;15.30;1.00;;;;;;5073971;28;20408;-65
2022/06/07 09:58:29;;;;;;;14.83;11.70;;;15.20;1.00;;;;;;5073429;28;20772;-67
2022/06/07 10:01:34;;;;;;;15.77;11.27;;;15.10;1.00;;;;;;5075928;28;20468;-65
2022/06/07 10:04:18;;;;;;;16.27;11.70;;;15.20;1.00;;;;;;5052548;28;20422;-74
2022/06/07 10:06:50;;;;;;;15.03;12.17;;;15.50;1.00;;;;;;5073180;28;20424;-74
2022/06/07 10:09:30;;;;;;;15.73;13.50;;;15.70;1.00;;;;;;5075817;28;20420;-73
2022/06/07 10:12:03;;;;;;;13.87;12.23;;;15.80;1.00;;;;;;5075866;28;20408;-73
2022/06/07 10:14:47;;;;;;;12.70;11.33;;;15.80;1.00;;;;;;5075670;28;20897;-66
2022/06/07 10:18:17;;;;;;;13.53;11.70;;;15.70;1.00;;;;;;5074930;28;20978;-65
2022/06/07 10:21:08;;;;;;;14.87;13.27;;;15.70;1.00;;;;;;5029484;28;20404;-73
2022/06/07 10:23:59;;;;;;;14.60;12.73;;;15.60;1.00;;;;;;5033797;28;20422;-71
2022/06/07 10:26:58;;;;;;;14.17;12.67;;;15.70;1.00;;;;;;5062231;28;20459;-75
2022/06/07 10:29:54;;;;;;;13.13;11.73;;;16.00;1.00;;;;;;5075329;28;20425;-64
2022/06/07 10:32:51;;;;;;;14.50;12.70;;;16.50;1.00;;;;;;5066155;28;20424;-65
2022/06/07 10:35:57;;;;;;;14.37;12.80;;;17.30;1.00;;;;;;5073793;28;20462;-71
2022/06/07 10:38:46;;;;;;;12.03;10.37;;;17.60;99.90;;;;;;5052992;28;20433;-70
2022/06/07 10:41:37;;;;;;;12.47;10.80;;;17.70;99.90;;;;;;5055134;28;20429;-63
2022/06/07 10:44:14;;;;;;;13.70;11.73;;;17.60;99.90;;;;;;5055047;28;20398;-67
2022/06/07 10:46:42;;;;;;;11.73;9.33;;;17.50;99.90;;;;;;5053928;28;20475;-67
2022/06/07 10:49:47;;;;;;;12.53;10.77;;;17.30;99.90;;;;;;5055224;28;20428;-68
2022/06/07 10:52:24;;;;;;;11.43;9.50;;;16.90;99.90;;;;;;5032824;28;20470;-72
2022/06/07 10:54:53;;;;;;;10.07;9.03;;;16.80;99.90;;;;;;5032410;28;20410;-67
2022/06/07 10:57:22;;;;;;;12.30;9.17;;;16.80;99.90;;;;;;5044326;28;20550;-65
2022/06/07 10:59:51;;;;;;;8.00;7.30;;;16.70;99.90;;;;;;5054703;28;20421;-66
2022/06/07 11:02:47;;;;;;;6.50;5.90;;;16.70;99.90;;;;;;5054774;28;20407;-66
2022/06/07 11:11:15;;;;;;;5.00;4.60;;;16.80;99.90;;;;;;5074194;28;20446;-71
2022/06/07 11:14:05;;;;;;;10.93;6.07;;;16.80;99.90;;;;;;5074571;28;20397;-66
2022/06/07 11:17:07;;;;;;;4.50;4.20;;;16.70;99.90;;;;;;5073623;28;20422;-66
2022/06/07 11:19:33;;;;;;;4.33;4.03;;;16.60;99.90;;;;;;5074203;28;20529;-64
2022/06/07 11:22:04;;;;;;;3.57;3.37;;;16.40;99.90;;;;;;5073254;28;20464;-65
2022/06/07 11:24:33;;;;;;;4.13;3.73;;;16.20;99.90;;;;;;5074313;28;20613;-68
2022/06/07 11:27:08;;;;;;;3.60;3.30;;;16.00;99.90;;;;;;5073034;28;20411;-69
2022/06/07 11:29:34;;;;;;;4.37;2.63;;;16.00;99.90;;;;;;5074050;28;20904;-69
2022/06/07 11:32:02;;;;;;;2.80;2.60;;;15.90;99.90;;;;;;5074181;28;20401;-69
2022/06/07 11:34:34;;;;;;;3.10;2.40;;;15.90;99.90;;;;;;5072882;28;20562;-67
2022/06/07 11:37:23;;;;;;;2.80;2.60;;;16.30;99.90;;;;;;5071959;28;20408;-70
2022/06/07 11:39:56;;;;;;;7.53;3.20;;;16.20;99.90;;;;;;5053889;28;20429;-72
2022/06/07 11:42:34;;;;;;;4.13;3.03;;;16.00;99.90;;;;;;5054011;28;20918;-67
2022/06/07 11:45:22;;;;;;;4.77;3.27;;;15.80;99.90;;;;;;5052452;28;20479;-67
2022/06/07 11:47:48;;;;;;;4.17;3.40;;;15.70;99.90;;;;;;5052511;28;20409;-72
2022/06/07 11:50:41;;;;;;;4.23;3.80;;;15.80;99.90;;;;;;5061120;28;20432;-67
2022/06/07 11:53:30;;;;;;;6.93;3.90;;;15.70;99.90;;;;;;5071197;28;20193;-72
2022/06/07 11:56:34;;;;;;;3.90;2.97;;;15.50;99.90;;;;;;5073697;28;20495;-66
2022/06/07 11:59:02;;;;;;;3.40;3.10;;;15.40;99.90;;;;;;5073562;28;20426;-72
2022/06/07 12:01:44;;;;;;;2.90;2.40;;;15.70;99.90;;;;;;5073650;28;20390;-66
2022/06/07 12:04:34;;;;;;;3.40;3.10;;;16.30;99.90;;;;;;5071949;28;20470;-67
2022/06/07 12:07:34;;;;;;;3.10;2.40;;;16.30;99.90;;;;;;5072661;28;20390;-66
2022/06/07 12:10:18;;;;;;;2.27;2.07;;;16.40;99.90;;;;;;5073548;28;20424;-72
2022/06/07 12:12:51;;;;;;;2.47;2.03;;;16.70;99.90;;;;;;5073614;28;20401;-73
2022/06/07 12:15:21;;;;;;;1.77;1.67;;;16.60;99.90;;;;;;5073597;28;20420;-65
2022/06/07 12:17:54;;;;;;;3.47;3.10;;;16.70;99.90;;;;;;5072021;28;20419;-73
2022/06/07 12:20:35;;;;;;;2.17;1.97;;;16.30;99.90;;;;;;5071777;28;20464;-73
2022/06/07 12:23:23;;;;;;;1.57;1.47;;;16.00;99.90;;;;;;5072306;28;20400;-74
2022/06/07 12:26:04;;;;;;;2.23;1.80;;;15.90;99.90;;;;;;5073343;28;20456;-73
2022/06/07 12:28:34;;;;;;;4.97;1.90;;;15.90;99.90;;;;;;5072337;28;20782;-65
2022/06/07 12:31:15;;;;;;;2.10;2.00;;;15.90;99.90;;;;;;5073456;28;20400;-73
2022/06/07 12:33:49;;;;;;;1.90;1.77;;;16.00;99.90;;;;;;5064569;28;20425;-72
2022/06/07 12:36:22;;;;;;;2.27;2.07;;;16.00;99.90;;;;;;5053210;28;20379;-65
2022/06/07 12:38:49;;;;;;;1.83;1.73;;;16.10;99.90;;;;;;5052510;28;20409;-72
2022/06/07 12:41:19;;;;;;;2.00;1.90;;;16.20;99.90;;;;;;5052840;28;20401;-65
2022/06/07 12:43:49;;;;;;;2.20;2.10;;;16.50;99.90;;;;;;5053038;28;20397;-72
2022/06/07 12:46:20;;;;;;;2.00;1.80;;;16.40;99.90;;;;;;5052865;28;20456;-73
2022/06/07 12:48:47;;;;;;;2.90;1.90;;;16.60;99.90;;;;;;5059755;28;20519;-73
2022/06/07 12:51:20;;;;;;;2.23;2.03;;;16.70;99.90;;;;;;5072049;28;20424;-65
2022/06/07 12:53:48;;;;;;;1.93;1.83;;;16.70;99.90;;;;;;5072000;28;20456;-65
2022/06/07 12:56:16;;;;;;;2.17;2.07;;;16.80;99.90;;;;;;5072274;28;20459;-73
2022/06/07 12:58:52;;;;;;;1.93;1.80;;;16.80;99.90;;;;;;5071888;28;20416;-66
2022/06/07 13:01:33;;;;;;;2.93;2.00;;;16.80;99.90;;;;;;5072986;28;20412;-73
2022/06/07 13:04:15;;;;;;;2.03;1.93;;;16.70;99.90;;;;;;5073015;28;20428;-72
2022/06/07 13:06:56;;;;;;;3.20;3.00;;;16.50;99.90;;;;;;5071331;28;20459;-73
2022/06/07 13:09:22;;;;;;;2.20;1.90;;;16.20;99.90;;;;;;5072934;28;20474;-68
2022/06/07 13:11:49;;;;;;;2.77;2.53;;;16.10;99.90;;;;;;5072804;28;20424;-66
2022/06/07 13:14:16;;;;;;;3.30;3.00;;;16.00;99.90;;;;;;5072073;28;20774;-65
2022/06/07 13:16:46;;;;;;;2.77;2.57;;;16.20;99.90;;;;;;5072020;28;20484;-65
2022/06/07 13:19:15;;;;;;;2.87;2.20;;;16.30;99.90;;;;;;5072545;28;20844;-73
2022/06/07 13:22:15;;;;;;;4.33;2.20;;;16.50;99.90;;;;;;5071695;28;20435;-66
2022/06/07 13:24:51;;;;;;;2.17;1.97;;;16.60;99.90;;;;;;5072893;28;20404;-71
2022/06/07 13:27:47;;;;;;;3.00;2.73;;;16.40;99.90;;;;;;5070800;28;20434;-73
2022/06/07 13:30:16;;;;;;;2.70;2.50;;;16.30;99.90;;;;;;5073087;28;20420;-66
2022/06/07 13:32:42;;;;;;;3.67;3.37;;;16.30;99.90;;;;;;5076407;28;20435;-66